Terminal Aerodrome Forecast
Issued by NWS

Home | Current Version | Previous Version | Text Only | Print | Product List | Glossary Off
Versions: 1 2 3 4 5 6 7 8 9 10 11 12 13 14 15 16 17 18 19

000
FTUS43 KMPX 291100
TAFRNH
TAF
KRNH 291128Z 2912/3012 30010KT P6SM OVC020
     FM291800 28008KT P6SM BKN025
     FM292100 27006KT P6SM SCT040
     FM300000 20004KT P6SM SCT110
     FM300900 16004KT P6SM VCSH BKN090=

USA.gov is the U.S. government's official web portal to all federal, state and local government web resources and services.